Pagrindinis puslapis
METAR-TAF:

METAR-TAF

Oro uostai :

Stokholmas-Arlanda, Švedija

platuma: 59-39N, ilguma: 017-57E, Aukštis: 38 m

Dabartinis oras

Ataskaita buvo paskelbta 29 minutes, ne 06:50 UTC
Vėjas 8 kt iš Pietų/Pietvakarių
Temperatūra -2°C
Drėgmė 86%
Slėgis 1013 hPa
Matomumas 10 km arba daugiau
Apsiniaukę ne aukštis 1800 ft

METAR: ESSA 180650Z 20008KT 9999 OVC018 M02/M04 Q1013 R19L/510169 R08/510169 NOSIG

Laikas: 08:19 (07:19 UTC)

Prognozė

Ataskaita buvo paskelbta 1 valandą ir 49 minutes, ne 05:30 UTC
Prognozė galioja nuo 18 metu 06 UTC su 19 metu 06 UTC
Vėjas 8 kt iš Pietvakarių
Matomumas 10 km arba daugiau
Su prošvaistėmis ne aukštis 2500 ft
Su prošvaistėmis ne aukštis 900 ft

TAF: ESSA 180530Z 1806/1906 22008KT 9999 BKN025 TEMPO1807/1811 BKN009

Orai ataskaitas ir orų prognozės (METAR, TAF).

turimą stotys yra geltonos ir raudonos taškus žemėlapyje.

Perkelti pele per norėdami pamatyti stoties vardą.

Tada spustelėkite, norėdami matyti oro stebėjimo ir prognozės.

Norėdami pakeisti žemėlapį: spustelėkite ant žalios mygtukų su juodo kryžiaus žemyn,; žalią mygtuką su brūkšneliu, jei norite nutolinti; arba žalių rodyklių gretimoms žemėlapius.


METAR-TAF: